C62

Kendallville Municipal Airport

Kendallville, Indiana, USA
METAR KC62 150835Z AUTO 08009G14KT 10SM BKN090 BKN120 M02/M06 A3025 RMK AO2 T10221069
Observed Flight Rules
Nov-15 @ 08:35 UTC (13 minutes ago) Visual Flight Rules
Wind Visibility Clouds
80° at 9 knots
 Gusting to 14 knots
10 miles
  • Broken at 9,000' AGL
  • Broken at 12,000' AGL
Temperatures Readings
Current -2°C / 28°F
Dewpoint -7°C / 19°F
Humidity 69%
Altimeter 30.25" Hg
Pressure 1024 hPa
Elevation 306
METAR KC62 150835Z AUTO 08009G14KT 10SM BKN090 BKN120 M02/M06 A3025 RMK AO2 T10221069
Observed Flight Rules
Nov-15 @ 08:35 UTC
(13 minutes ago)
VFR
Wind Visibility
80° at 9 knots
 Gusting to 14 knots
10 miles
Clouds
  • Broken at 9,000' AGL
  • Broken at 12,000' AGL
Temperature Dewpoint
-2°C / 28°F -7°C / 19°F
Humidity Altimeter Pressure
69% 30.25" Hg 1024 hPa